Time;durP1;ratioP1;P1;durP2;ratioP2;P2;SDS_P1;SDS_P2;PMS_P1;PMS_P2;Temp;Humidity;BMP_temperature;BMP_pressure;BME280_temperature;BME280_humidity;BME280_pressure;Samples;Min_cycle;Max_cycle;Signal;HPM_P1;HPM_P2
2024/03/24 00:00:31;;;;;;;1.67;1.00;;;3.60;99.90;;;;;;5031883;28;20052;-76
2024/03/24 00:02:57;;;;;;;3.08;1.20;;;3.60;99.90;;;;;;5035050;28;20033;-76
2024/03/24 00:05:23;;;;;;;1.67;0.60;;;3.70;99.90;;;;;;5031323;28;20069;-76
2024/03/24 00:07:48;;;;;;;2.15;0.95;;;3.60;99.90;;;;;;5032545;28;20038;-76
2024/03/24 00:10:14;;;;;;;1.35;0.95;;;3.60;99.90;;;;;;5031487;28;20041;-75
2024/03/24 00:12:39;;;;;;;1.20;0.63;;;3.60;99.90;;;;;;5032082;28;20049;-76
2024/03/24 00:15:05;;;;;;;1.95;0.80;;;3.60;99.90;;;;;;5040737;28;20096;-76
2024/03/24 00:17:31;;;;;;;2.00;0.75;;;3.60;99.90;;;;;;5032240;28;20025;-75
2024/03/24 00:19:56;;;;;;;1.75;0.68;;;3.50;99.90;;;;;;5032094;28;20469;-76
2024/03/24 00:22:22;;;;;;;2.05;0.68;;;3.50;99.90;;;;;;5030266;28;20032;-75
2024/03/24 00:24:48;;;;;;;1.27;0.50;;;3.40;99.90;;;;;;5031656;28;20112;-76
2024/03/24 00:27:15;;;;;;;3.30;0.68;;;3.30;99.90;;;;;;5030820;28;20049;-76
2024/03/24 00:29:41;;;;;;;3.55;0.70;;;3.30;99.90;;;;;;5013846;28;20441;-77
2024/03/24 00:32:07;;;;;;;2.47;0.90;;;3.30;99.90;;;;;;5030915;28;20108;-76
2024/03/24 00:34:32;;;;;;;2.38;0.70;;;3.30;99.90;;;;;;5031942;28;20025;-75
2024/03/24 00:36:58;;;;;;;2.10;0.50;;;3.20;99.90;;;;;;5031142;28;20021;-75
2024/03/24 00:39:23;;;;;;;6.38;0.77;;;3.20;99.90;;;;;;5030890;28;20033;-75
2024/03/24 00:41:49;;;;;;;1.73;0.70;;;3.10;99.90;;;;;;5030906;28;20049;-75
2024/03/24 00:44:14;;;;;;;2.33;0.88;;;3.10;99.90;;;;;;5031003;28;20140;-74
2024/03/24 00:46:40;;;;;;;2.78;0.82;;;3.20;99.90;;;;;;5030905;28;20139;-75
2024/03/24 00:49:05;;;;;;;3.42;0.50;;;3.20;99.90;;;;;;5030957;28;20453;-74
2024/03/24 00:51:31;;;;;;;1.85;0.57;;;3.20;99.90;;;;;;5031059;28;20030;-75
2024/03/24 00:53:56;;;;;;;4.78;0.90;;;3.10;99.90;;;;;;5031660;28;20033;-75
2024/03/24 00:56:22;;;;;;;0.82;0.55;;;3.10;99.90;;;;;;5029707;28;20545;-74
2024/03/24 00:58:48;;;;;;;2.63;0.85;;;3.10;99.90;;;;;;5031410;28;20033;-75
2024/03/24 01:01:13;;;;;;;3.15;0.68;;;3.00;99.90;;;;;;5029937;28;20046;-77
2024/03/24 01:03:39;;;;;;;2.70;0.90;;;3.00;99.90;;;;;;5034076;28;20032;-76
2024/03/24 01:06:06;;;;;;;2.25;0.60;;;3.00;99.90;;;;;;5030010;28;20025;-76
2024/03/24 01:08:32;;;;;;;1.60;0.80;;;3.00;99.90;;;;;;5024938;28;20359;-77
2024/03/24 01:11:04;;;;;;;2.88;1.17;;;3.10;99.90;;;;;;5030339;28;20028;-77
2024/03/24 01:13:29;;;;;;;2.65;1.13;;;3.00;99.90;;;;;;5033612;28;20026;-76
2024/03/24 01:15:55;;;;;;;3.92;1.45;;;3.00;99.90;;;;;;5037513;28;20048;-76
2024/03/24 01:18:21;;;;;;;2.30;0.70;;;3.10;99.90;;;;;;5030191;28;20100;-74
2024/03/24 01:20:46;;;;;;;5.40;0.70;;;3.10;99.90;;;;;;5029884;28;20055;-76
2024/03/24 01:23:12;;;;;;;1.77;0.70;;;3.10;99.90;;;;;;5030234;28;20040;-76
2024/03/24 01:25:37;;;;;;;4.78;0.80;;;3.10;99.90;;;;;;5030208;28;20484;-77
2024/03/24 01:28:03;;;;;;;2.22;0.52;;;3.20;99.90;;;;;;5029989;28;20136;-73
2024/03/24 01:30:29;;;;;;;1.67;0.80;;;3.20;99.90;;;;;;5030356;28;20044;-76
2024/03/24 01:32:54;;;;;;;1.80;0.68;;;3.30;99.90;;;;;;5030748;28;20478;-76
2024/03/24 01:35:20;;;;;;;0.80;0.70;;;3.30;99.90;;;;;;5029672;28;20048;-76
2024/03/24 01:37:45;;;;;;;2.40;0.70;;;3.30;99.90;;;;;;5030974;28;20045;-76
2024/03/24 01:40:11;;;;;;;2.80;0.60;;;3.30;99.90;;;;;;5029708;28;20463;-77
2024/03/24 01:42:37;;;;;;;1.75;0.52;;;3.30;99.90;;;;;;5029504;28;20033;-76
2024/03/24 01:45:03;;;;;;;1.88;0.50;;;3.30;99.90;;;;;;5029554;28;20304;-75
2024/03/24 01:47:29;;;;;;;2.05;0.50;;;3.30;99.90;;;;;;5030489;28;20264;-76
2024/03/24 01:49:54;;;;;;;2.17;0.60;;;3.30;99.90;;;;;;5030650;28;20061;-76
2024/03/24 01:52:21;;;;;;;2.45;0.60;;;3.30;99.90;;;;;;5029724;28;20845;-77
2024/03/24 01:54:46;;;;;;;1.23;0.50;;;3.30;99.90;;;;;;5021729;28;20021;-77
2024/03/24 01:57:12;;;;;;;1.20;0.55;;;3.30;99.90;;;;;;5029594;28;20036;-77
2024/03/24 01:59:37;;;;;;;0.40;0.30;;;3.30;99.90;;;;;;5029864;28;20060;-77
2024/03/24 02:02:03;;;;;;;1.63;0.55;;;3.30;99.90;;;;;;5030332;28;20026;-74
2024/03/24 02:04:29;;;;;;;1.95;0.40;;;3.30;99.90;;;;;;5020916;28;20076;-77
2024/03/24 02:06:54;;;;;;;1.15;0.50;;;3.30;99.90;;;;;;5030026;28;20052;-77
2024/03/24 02:09:20;;;;;;;1.13;0.40;;;3.20;99.90;;;;;;5030053;28;20026;-77
2024/03/24 02:11:46;;;;;;;2.25;0.70;;;3.30;99.90;;;;;;5030186;28;20383;-77
2024/03/24 02:14:12;;;;;;;2.65;0.50;;;3.30;99.90;;;;;;5038512;28;20021;-77
2024/03/24 02:16:37;;;;;;;0.98;0.45;;;3.30;99.90;;;;;;5031080;28;20025;-77
2024/03/24 02:19:03;;;;;;;1.17;0.52;;;3.30;99.90;;;;;;5029929;28;20112;-73
2024/03/24 02:21:29;;;;;;;1.27;0.70;;;3.30;99.90;;;;;;5032339;28;20044;-76
2024/03/24 02:23:55;;;;;;;1.08;0.70;;;3.30;99.90;;;;;;5034452;28;20037;-76
2024/03/24 02:26:20;;;;;;;1.17;0.70;;;3.20;99.90;;;;;;5032914;28;21024;-75
2024/03/24 02:28:46;;;;;;;1.13;0.57;;;3.10;99.90;;;;;;5025306;28;20025;-77
2024/03/24 02:31:11;;;;;;;1.00;0.55;;;3.00;99.90;;;;;;5033151;28;20104;-76
2024/03/24 02:33:38;;;;;;;1.63;0.50;;;3.00;99.90;;;;;;5033941;28;20459;-76
2024/03/24 02:36:04;;;;;;;1.48;0.90;;;2.90;99.90;;;;;;5032792;28;20037;-73
2024/03/24 02:38:30;;;;;;;1.90;0.60;;;2.80;99.90;;;;;;5034471;28;20033;-77
2024/03/24 02:40:56;;;;;;;3.25;0.70;;;2.80;99.90;;;;;;5033950;28;20379;-77
2024/03/24 02:43:21;;;;;;;3.30;0.55;;;2.80;99.90;;;;;;5033356;28;20068;-77
2024/03/24 02:45:55;;;;;;;0.50;0.40;;;2.70;99.90;;;;;;5032584;28;20127;-77
2024/03/24 02:48:21;;;;;;;2.53;0.60;;;2.70;99.90;;;;;;5033353;28;20037;-77
2024/03/24 02:50:46;;;;;;;1.33;0.70;;;2.60;99.90;;;;;;5033388;28;20033;-78
2024/03/24 02:53:12;;;;;;;0.98;0.40;;;2.60;99.90;;;;;;5032965;28;20027;-77
2024/03/24 02:55:47;;;;;;;1.00;0.70;;;2.60;99.90;;;;;;5033363;28;20036;-78
2024/03/24 02:58:14;;;;;;;1.33;0.50;;;2.50;99.90;;;;;;5025913;28;20025;-76
2024/03/24 03:00:39;;;;;;;2.28;0.60;;;2.50;99.90;;;;;;5032289;28;20038;-77
2024/03/24 03:03:05;;;;;;;1.38;0.47;;;2.50;99.90;;;;;;5035638;28;20041;-77
2024/03/24 03:05:30;;;;;;;2.17;0.50;;;2.50;99.90;;;;;;5033110;28;20039;-77
2024/03/24 03:07:56;;;;;;;1.27;0.55;;;2.50;99.90;;;;;;5033425;28;20056;-77
2024/03/24 03:10:22;;;;;;;1.70;0.47;;;2.50;99.90;;;;;;5032311;28;20601;-77
2024/03/24 03:12:47;;;;;;;2.13;0.50;;;2.60;99.90;;;;;;5033495;28;20032;-77
2024/03/24 03:15:15;;;;;;;1.92;0.50;;;2.60;99.90;;;;;;5041685;28;20539;-76
2024/03/24 03:17:41;;;;;;;0.73;0.32;;;2.60;99.90;;;;;;5033510;28;20026;-77
2024/03/24 03:20:12;;;;;;;1.70;0.68;;;2.60;99.90;;;;;;5032364;28;20030;-75
2024/03/24 03:22:41;;;;;;;2.17;0.50;;;2.60;99.90;;;;;;5032743;28;20120;-77
2024/03/24 03:25:07;;;;;;;3.10;0.73;;;2.70;99.90;;;;;;5031795;28;20029;-76
2024/03/24 03:27:34;;;;;;;2.67;1.42;;;2.70;99.90;;;;;;5032831;28;20025;-76
2024/03/24 03:29:59;;;;;;;1.88;0.82;;;2.70;99.90;;;;;;5033530;28;20061;-77
2024/03/24 03:32:25;;;;;;;3.42;0.80;;;2.70;99.90;;;;;;5030851;28;20060;-77
2024/03/24 03:34:52;;;;;;;1.25;1.00;;;2.70;99.90;;;;;;5033058;28;20066;-77
2024/03/24 03:37:19;;;;;;;2.25;0.95;;;2.70;99.90;;;;;;5031955;28;20026;-77
2024/03/24 03:39:44;;;;;;;3.58;0.65;;;2.70;99.90;;;;;;5032954;28;20140;-77
2024/03/24 03:42:10;;;;;;;2.50;0.68;;;2.80;99.90;;;;;;5031775;28;20112;-77
2024/03/24 03:44:36;;;;;;;2.95;0.50;;;2.80;99.90;;;;;;5032296;28;20391;-76
2024/03/24 03:47:02;;;;;;;1.48;0.60;;;2.80;99.90;;;;;;5032073;28;20053;-74
2024/03/24 03:49:27;;;;;;;1.33;0.60;;;2.90;99.90;;;;;;5032666;28;20030;-76
2024/03/24 03:51:56;;;;;;;1.85;0.47;;;3.00;99.90;;;;;;5043294;28;20099;-76
2024/03/24 03:54:22;;;;;;;0.68;0.30;;;3.10;99.90;;;;;;5048694;28;20033;-74
2024/03/24 03:56:48;;;;;;;2.38;0.50;;;3.10;99.90;;;;;;5049634;28;20022;-76
2024/03/24 03:59:14;;;;;;;3.38;0.68;;;3.10;99.90;;;;;;5049827;28;20040;-76
2024/03/24 04:01:40;;;;;;;1.95;0.52;;;3.10;99.90;;;;;;5034670;28;20467;-77
2024/03/24 04:04:07;;;;;;;1.20;0.45;;;3.10;99.90;;;;;;5024270;28;20108;-77
2024/03/24 04:06:32;;;;;;;1.45;0.47;;;3.00;99.90;;;;;;5032318;28;20049;-77
2024/03/24 04:08:59;;;;;;;3.13;0.80;;;3.00;99.90;;;;;;5032485;28;20467;-77
2024/03/24 04:11:24;;;;;;;0.90;0.32;;;3.10;99.90;;;;;;5031202;28;20021;-75
2024/03/24 04:13:50;;;;;;;0.82;0.40;;;3.10;99.90;;;;;;5037893;28;20039;-77
2024/03/24 04:16:20;;;;;;;0.60;0.28;;;3.10;99.90;;;;;;5035141;28;20101;-75
2024/03/24 04:18:46;;;;;;;0.30;0.30;;;3.10;99.90;;;;;;5023620;28;20037;-78
2024/03/24 04:21:12;;;;;;;1.15;0.50;;;3.10;99.90;;;;;;5034424;28;20095;-76
2024/03/24 04:23:38;;;;;;;2.03;0.50;;;3.00;99.90;;;;;;5031884;28;20429;-77
2024/03/24 04:26:04;;;;;;;0.77;0.55;;;3.00;99.90;;;;;;5030958;28;20026;-76
2024/03/24 04:28:30;;;;;;;1.27;0.50;;;3.00;99.90;;;;;;5031988;28;20025;-75
2024/03/24 04:30:55;;;;;;;2.88;0.70;;;3.00;99.90;;;;;;5031675;28;20087;-74
2024/03/24 04:33:21;;;;;;;1.55;0.70;;;3.00;99.90;;;;;;5031197;28;20029;-77
2024/03/24 04:35:47;;;;;;;2.47;0.75;;;3.00;99.90;;;;;;5031121;28;20540;-77
2024/03/24 04:38:13;;;;;;;1.13;0.70;;;3.00;99.90;;;;;;5031335;28;20029;-77
2024/03/24 04:40:39;;;;;;;1.08;0.57;;;3.00;99.90;;;;;;5031288;28;20033;-77
2024/03/24 04:43:07;;;;;;;1.42;0.52;;;3.00;99.90;;;;;;5030509;28;20390;-76
2024/03/24 04:45:33;;;;;;;1.30;0.63;;;3.00;99.90;;;;;;5030527;28;20057;-76
2024/03/24 04:47:59;;;;;;;1.92;0.50;;;3.00;99.90;;;;;;5031759;28;20059;-77
2024/03/24 04:50:25;;;;;;;0.85;0.30;;;3.00;99.90;;;;;;5030704;28;20129;-75
2024/03/24 04:52:51;;;;;;;0.57;0.45;;;3.00;99.90;;;;;;5031462;28;20048;-77
2024/03/24 04:55:16;;;;;;;0.75;0.40;;;3.00;99.90;;;;;;5029901;28;20037;-75
2024/03/24 04:57:42;;;;;;;1.15;0.30;;;3.10;99.90;;;;;;5029798;28;20057;-76
2024/03/24 05:00:08;;;;;;;1.95;0.30;;;3.10;99.90;;;;;;5030294;28;20475;-76
2024/03/24 05:02:37;;;;;;;1.63;0.50;;;3.10;99.90;;;;;;5035971;28;20029;-77
2024/03/24 05:05:03;;;;;;;1.13;0.47;;;3.00;99.90;;;;;;5030230;28;20079;-77
2024/03/24 05:07:29;;;;;;;1.25;0.75;;;2.90;99.90;;;;;;5030929;28;20116;-77
2024/03/24 05:09:55;;;;;;;1.85;0.70;;;2.90;99.90;;;;;;5030674;28;20395;-77
2024/03/24 05:12:21;;;;;;;0.85;0.50;;;2.80;99.90;;;;;;5030295;28;20041;-77
2024/03/24 05:14:48;;;;;;;2.63;0.45;;;2.80;99.90;;;;;;5040621;28;20033;-77
2024/03/24 05:17:14;;;;;;;2.92;0.63;;;2.70;99.90;;;;;;5030159;28;20155;-77
2024/03/24 05:19:40;;;;;;;1.33;0.60;;;2.70;99.90;;;;;;5031012;28;20041;-77
2024/03/24 05:22:05;;;;;;;0.50;0.30;;;2.60;99.90;;;;;;5021679;28;20041;-77
2024/03/24 05:24:31;;;;;;;0.88;0.50;;;2.60;99.90;;;;;;5030226;28;20033;-77
2024/03/24 05:26:57;;;;;;;1.70;0.73;;;2.60;99.90;;;;;;5030505;28;20045;-77
2024/03/24 05:29:23;;;;;;;1.23;0.55;;;2.60;99.90;;;;;;5030375;28;20204;-77
2024/03/24 05:31:57;;;;;;;0.40;0.40;;;2.50;99.90;;;;;;5030245;28;20075;-76
2024/03/24 05:34:23;;;;;;;2.08;0.60;;;2.50;99.90;;;;;;5029988;28;20283;-76
2024/03/24 05:36:48;;;;;;;0.77;0.30;;;2.40;99.90;;;;;;5030263;28;20064;-77
2024/03/24 05:39:14;;;;;;;1.35;0.50;;;2.30;99.90;;;;;;5030289;28;20103;-77
2024/03/24 05:41:39;;;;;;;2.58;0.50;;;2.30;99.90;;;;;;5030624;28;20037;-78
2024/03/24 05:44:05;;;;;;;1.40;0.85;;;2.30;99.90;;;;;;5029357;28;20028;-77
2024/03/24 05:46:31;;;;;;;0.85;0.60;;;2.30;99.90;;;;;;5030046;28;20037;-77
2024/03/24 05:48:56;;;;;;;2.30;0.60;;;2.40;99.90;;;;;;5030609;28;20045;-75
2024/03/24 05:51:22;;;;;;;0.43;0.43;;;2.40;99.90;;;;;;5026160;28;20038;-78
2024/03/24 05:53:48;;;;;;;2.13;0.50;;;2.50;99.90;;;;;;5024951;28;20024;-75
2024/03/24 05:56:13;;;;;;;1.90;0.60;;;2.50;99.90;;;;;;5021370;28;20419;-74
2024/03/24 05:58:39;;;;;;;0.95;0.75;;;2.60;99.90;;;;;;5033789;28;20032;-73
2024/03/24 06:01:05;;;;;;;2.63;0.60;;;2.70;99.90;;;;;;5035793;28;20034;-79
2024/03/24 06:03:30;;;;;;;4.90;0.80;;;2.80;99.90;;;;;;5036857;28;20442;-78
2024/03/24 06:05:56;;;;;;;0.63;0.45;;;2.90;99.90;;;;;;5008695;28;20387;-75
2024/03/24 06:08:23;;;;;;;2.45;0.77;;;3.00;99.90;;;;;;5033890;28;20280;-76
2024/03/24 06:10:49;;;;;;;2.25;0.63;;;3.10;99.90;;;;;;5030701;28;20045;-73
2024/03/24 06:13:14;;;;;;;4.72;1.00;;;3.10;99.90;;;;;;5028903;28;20033;-76
2024/03/24 06:15:42;;;;;;;3.42;0.70;;;3.20;99.90;;;;;;5035708;28;20029;-74
2024/03/24 06:18:08;;;;;;;1.17;0.50;;;3.30;99.90;;;;;;5025143;28;20041;-77
2024/03/24 06:20:35;;;;;;;1.77;0.55;;;3.30;99.90;;;;;;5029584;28;20041;-75
2024/03/24 06:23:04;;;;;;;2.85;0.30;;;3.40;99.90;;;;;;5031384;28;20068;-77
2024/03/24 06:25:30;;;;;;;4.25;0.52;;;3.50;99.90;;;;;;5032115;28;20033;-73
2024/03/24 06:27:59;;;;;;;1.42;0.47;;;3.60;99.90;;;;;;5030760;28;20057;-73
2024/03/24 06:30:25;;;;;;;1.05;0.60;;;3.70;99.90;;;;;;5030424;28;20405;-73
2024/03/24 06:32:51;;;;;;;1.58;0.50;;;3.70;99.90;;;;;;5034358;28;20021;-74
2024/03/24 06:35:16;;;;;;;3.13;0.73;;;3.70;99.90;;;;;;5032131;28;20037;-73
2024/03/24 06:37:43;;;;;;;0.82;0.40;;;3.70;99.90;;;;;;5033969;28;20092;-73
2024/03/24 06:40:11;;;;;;;2.22;0.30;;;3.80;99.90;;;;;;5027622;28;20061;-73
2024/03/24 06:42:59;;;;;;;1.77;0.30;;;3.90;99.90;;;;;;5032754;28;20042;-74
2024/03/24 06:45:30;;;;;;;3.78;0.63;;;3.90;99.90;;;;;;5025692;28;20051;-74
2024/03/24 06:47:56;;;;;;;0.30;0.30;;;4.00;99.90;;;;;;5030918;28;20039;-73
2024/03/24 06:50:22;;;;;;;3.20;0.35;;;4.20;99.90;;;;;;5032141;28;20281;-72
2024/03/24 06:52:50;;;;;;;1.55;0.47;;;4.40;99.90;;;;;;5033244;28;20342;-73
2024/03/24 06:55:15;;;;;;;1.65;0.65;;;4.60;99.90;;;;;;5031411;28;20469;-73
2024/03/24 06:57:41;;;;;;;1.77;0.73;;;4.80;99.90;;;;;;5031976;28;20030;-71
2024/03/24 07:00:07;;;;;;;1.23;0.80;;;5.00;99.90;;;;;;5031431;28;20033;-73
2024/03/24 07:02:33;;;;;;;2.30;0.70;;;5.30;99.90;;;;;;5032790;28;20033;-72
2024/03/24 07:04:58;;;;;;;1.27;0.35;;;5.30;99.90;;;;;;5032422;28;20441;-69
2024/03/24 07:07:24;;;;;;;2.50;0.50;;;5.30;99.90;;;;;;5027425;28;20055;-71
2024/03/24 07:09:49;;;;;;;3.03;0.52;;;5.40;99.90;;;;;;5030440;28;20044;-71
2024/03/24 07:12:15;;;;;;;3.83;1.05;;;5.40;99.90;;;;;;5030239;28;20091;-72
2024/03/24 07:14:41;;;;;;;1.40;0.60;;;5.50;99.90;;;;;;5033288;28;20091;-71
2024/03/24 07:17:06;;;;;;;1.92;0.70;;;5.60;99.90;;;;;;5031995;28;20375;-72
2024/03/24 07:19:32;;;;;;;2.80;0.50;;;5.60;99.90;;;;;;5033201;28;20025;-72
2024/03/24 07:21:58;;;;;;;2.70;0.73;;;5.70;99.90;;;;;;5032077;28;20041;-72
2024/03/24 07:24:23;;;;;;;2.95;0.65;;;5.70;99.90;;;;;;5032544;28;20026;-72
2024/03/24 07:26:49;;;;;;;2.75;0.60;;;5.60;99.90;;;;;;5031631;28;20068;-72
2024/03/24 07:29:14;;;;;;;0.88;0.50;;;5.60;99.90;;;;;;5028337;28;20112;-72
2024/03/24 07:31:40;;;;;;;1.13;0.40;;;5.70;99.90;;;;;;5023083;28;20013;-72
2024/03/24 07:34:05;;;;;;;2.53;0.50;;;5.80;99.90;;;;;;5026691;28;20029;-72
2024/03/24 07:36:31;;;;;;;3.42;0.60;;;5.80;99.90;;;;;;5031877;28;20204;-72
2024/03/24 07:38:56;;;;;;;1.75;0.68;;;5.80;99.90;;;;;;5032602;28;20390;-71
2024/03/24 07:41:22;;;;;;;2.65;0.57;;;5.70;99.90;;;;;;5022894;28;20517;-71
2024/03/24 07:43:48;;;;;;;3.17;0.85;;;5.70;99.90;;;;;;5027844;28;20425;-71
2024/03/24 07:46:15;;;;;;;4.20;1.67;;;5.70;99.90;;;;;;5023322;28;20041;-71
2024/03/24 07:48:41;;;;;;;3.78;0.90;;;5.70;99.90;;;;;;5023939;28;20037;-71
2024/03/24 07:51:06;;;;;;;4.68;0.60;;;5.80;99.90;;;;;;5020599;28;20027;-71
2024/03/24 07:53:32;;;;;;;2.92;0.60;;;5.90;99.90;;;;;;5032155;28;20029;-72
2024/03/24 07:55:57;;;;;;;1.80;0.70;;;5.90;99.90;;;;;;5032245;28;20084;-73
2024/03/24 07:58:23;;;;;;;4.57;1.05;;;6.10;99.90;;;;;;5027097;28;20043;-71
2024/03/24 08:00:50;;;;;;;1.70;0.60;;;6.30;99.90;;;;;;5029011;28;20492;-71
2024/03/24 08:03:15;;;;;;;2.10;0.73;;;6.40;99.90;;;;;;5025570;28;20021;-71
2024/03/24 08:05:41;;;;;;;1.83;0.50;;;6.60;99.90;;;;;;5029169;28;20025;-72
2024/03/24 08:08:06;;;;;;;1.98;0.60;;;6.80;99.90;;;;;;5029179;28;20037;-72
2024/03/24 08:10:32;;;;;;;1.17;0.68;;;6.90;99.90;;;;;;5031350;28;20029;-72
2024/03/24 08:12:58;;;;;;;1.48;0.50;;;6.90;99.90;;;;;;5032304;28;20104;-72
2024/03/24 08:15:23;;;;;;;1.75;0.50;;;6.90;99.90;;;;;;5031692;28;20033;-72
2024/03/24 08:17:49;;;;;;;0.95;0.40;;;6.80;99.90;;;;;;5031249;28;20437;-71
2024/03/24 08:20:14;;;;;;;1.40;0.60;;;6.90;99.90;;;;;;5030765;28;20075;-71
2024/03/24 08:22:40;;;;;;;1.42;0.60;;;7.00;99.90;;;;;;5032107;28;20033;-70
2024/03/24 08:25:06;;;;;;;1.60;0.45;;;7.10;99.90;;;;;;5036280;28;20463;-71
2024/03/24 08:27:32;;;;;;;2.60;0.50;;;7.20;99.90;;;;;;5027460;28;20036;-72
2024/03/24 08:29:58;;;;;;;0.80;0.40;;;7.50;99.90;;;;;;5031929;28;20037;-71
2024/03/24 08:32:23;;;;;;;2.58;0.98;;;7.60;99.90;;;;;;5030505;28;20407;-72
2024/03/24 08:34:51;;;;;;;4.07;1.15;;;7.90;99.90;;;;;;5031667;28;20037;-72
2024/03/24 08:37:16;;;;;;;3.53;0.50;;;8.00;99.90;;;;;;5030157;28;20086;-71
2024/03/24 08:39:42;;;;;;;2.80;0.80;;;8.30;99.90;;;;;;5031463;28;20108;-72
2024/03/24 08:42:08;;;;;;;1.92;0.73;;;8.40;99.90;;;;;;5030584;28;20033;-72
2024/03/24 08:44:34;;;;;;;1.83;1.00;;;8.50;99.90;;;;;;5030885;28;20046;-72
2024/03/24 08:47:05;;;;;;;2.55;0.60;;;;;;;;;;5030872;28;20021;-71
2024/03/24 08:49:36;;;;;;;2.53;0.82;;;;;;;;;;5030623;28;20026;-71
2024/03/24 08:52:04;;;;;;;1.35;0.90;;;;;;;;;;5030184;28;20052;-71
2024/03/24 08:54:30;;;;;;;2.17;0.50;;;;;;;;;;5030877;28;20057;-72
2024/03/24 08:56:56;;;;;;;2.33;0.82;;;;;;;;;;5030603;28;20045;-71
2024/03/24 08:59:22;;;;;;;6.60;1.33;;;;;;;;;;5029914;28;20033;-72
2024/03/24 09:01:49;;;;;;;6.63;1.02;;;;;;;;;;5030269;28;20517;-72
2024/03/24 09:04:15;;;;;;;1.80;1.10;;;;;;;;;;5030042;28;20366;-74
2024/03/24 09:06:41;;;;;;;2.95;1.20;;;;;;;;;;5030121;28;20029;-71
2024/03/24 09:09:08;;;;;;;3.70;0.80;;;;;;;;;;5030133;28;20104;-73
2024/03/24 09:11:34;;;;;;;4.40;1.05;;;;;;;;;;5030419;28;20443;-72
2024/03/24 09:13:59;;;;;;;2.75;1.10;;;;;;;;;;5031848;28;20503;-72
2024/03/24 09:16:25;;;;;;;2.28;1.45;;;;;;;;;;5029662;28;20108;-75
2024/03/24 09:18:52;;;;;;;6.28;1.08;;;;;;;;;;5030977;28;20475;-71
2024/03/24 09:21:18;;;;;;;5.63;1.38;;;;;;;;;;5029703;28;20498;-70
2024/03/24 09:23:44;;;;;;;3.42;1.27;;;;;;;;;;5030472;28;20471;-70
2024/03/24 09:26:10;;;;;;;4.25;1.10;;;;;;;;;;5028998;28;20036;-71
2024/03/24 09:28:36;;;;;;;4.00;1.40;;;;;;;;;;5030353;28;20029;-71
2024/03/24 09:31:03;;;;;;;3.88;1.30;;;;;;;;;;5029055;28;20093;-69
2024/03/24 09:33:30;;;;;;;3.30;1.30;;;;;;;;;;5012991;28;20323;-71
2024/03/24 09:36:03;;;;;;;3.78;1.50;;;;;;;;;;5030049;28;20026;-72
2024/03/24 09:38:29;;;;;;;3.63;1.60;;;;;;;;;;5030487;28;20022;-70
2024/03/24 09:40:55;;;;;;;3.70;1.23;;;;;;;;;;5029682;28;20177;-69
2024/03/24 09:43:22;;;;;;;2.78;1.20;;;;;;;;;;5028996;28;20132;-69
2024/03/24 09:45:48;;;;;;;5.43;1.40;;;;;;;;;;5029342;28;20184;-71
2024/03/24 09:48:15;;;;;;;2.95;1.40;;;;;;;;;;5029757;28;20071;-69
2024/03/24 09:50:42;;;;;;;4.63;1.33;;;;;;;;;;5020918;28;20542;-71
2024/03/24 09:53:09;;;;;;;3.40;1.23;;;;;;;;;;5030145;28;20132;-70
2024/03/24 09:55:35;;;;;;;2.13;1.25;;;;;;;;;;5030148;28;20097;-70
2024/03/24 09:58:01;;;;;;;3.67;1.33;;;;;;;;;;5030671;28;20033;-70
2024/03/24 10:00:28;;;;;;;6.60;1.77;;;;;;;;;;5029379;28;20068;-72
2024/03/24 10:02:54;;;;;;;5.93;2.03;;;;;;;;;;5030437;28;20030;-71
2024/03/24 10:05:21;;;;;;;6.57;1.65;;;;;;;;;;5029126;28;20095;-72
2024/03/24 10:07:47;;;;;;;6.03;1.77;;;;;;;;;;5030377;28;20026;-73
2024/03/24 10:10:14;;;;;;;5.47;1.50;;;;;;;;;;5029087;28;20025;-72
2024/03/24 10:12:51;;;;;;;3.53;1.48;;;;;;;;;;5030177;28;20033;-70
2024/03/24 10:15:22;;;;;;;6.45;1.42;;;;;;;;;;5029772;28;20053;-72
2024/03/24 10:18:11;;;;;;;9.80;1.67;;;;;;;;;;5030215;28;20109;-69
2024/03/24 10:20:38;;;;;;;4.07;1.50;;;;;;;;;;5029164;28;20025;-70
2024/03/24 10:23:04;;;;;;;2.20;1.20;;;;;;;;;;5029112;28;20462;-69
2024/03/24 10:25:31;;;;;;;3.00;1.55;;;;;;;;;;5028990;28;20068;-70
2024/03/24 10:27:57;;;;;;;6.20;1.17;;;;;;;;;;5030427;28;20025;-68
2024/03/24 10:30:24;;;;;;;5.20;1.30;;;;;;;;;;5028897;28;20033;-70
2024/03/24 10:32:50;;;;;;;6.90;1.38;;;;;;;;;;5030151;28;20108;-70
2024/03/24 10:35:16;;;;;;;4.53;1.48;;;;;;;;;;5028909;28;20096;-72
2024/03/24 10:37:43;;;;;;;5.47;1.52;;;;;;;;;;5030226;28;20018;-67
2024/03/24 10:40:12;;;;;;;2.92;1.20;;;;;;;;;;5029124;28;20061;-68
2024/03/24 10:42:43;;;;;;;3.43;1.43;;;;;;;;;;5032912;28;20029;-70
2024/03/24 10:45:10;;;;;;;5.75;1.40;;;;;;;;;;5032062;28;20056;-69
2024/03/24 10:47:36;;;;;;;3.70;1.50;;;;;;;;;;5033977;28;20017;-70
2024/03/24 10:50:02;;;;;;;8.10;1.65;;;;;;;;;;5032277;28;20040;-70
2024/03/24 10:52:34;;;;;;;6.03;1.38;;;;;;;;;;5024519;28;20024;-70
2024/03/24 10:55:00;;;;;;;5.93;1.48;;;;;;;;;;5033551;28;20101;-71
2024/03/24 10:57:26;;;;;;;2.20;1.10;;;9.10;99.90;;;;;;5032556;28;20044;-70
2024/03/24 10:59:54;;;;;;;6.80;1.83;;;9.30;99.90;;;;;;5033549;28;20385;-68
2024/03/24 11:02:20;;;;;;;4.07;1.20;;;9.40;99.90;;;;;;5032405;28;20037;-67
2024/03/24 11:04:47;;;;;;;5.05;1.52;;;9.30;99.90;;;;;;5026194;28;20028;-68
2024/03/24 11:07:14;;;;;;;4.30;1.30;;;9.40;99.90;;;;;;5014315;28;20021;-67
2024/03/24 11:09:41;;;;;;;3.28;1.58;;;9.50;99.90;;;;;;5018450;28;20109;-69
2024/03/24 11:12:08;;;;;;;2.85;1.20;;;9.60;99.90;;;;;;5032178;28;20041;-68
2024/03/24 11:14:35;;;;;;;1.98;1.35;;;9.70;99.90;;;;;;5033777;28;20083;-69
2024/03/24 11:17:03;;;;;;;3.28;1.38;;;9.60;99.90;;;;;;5032648;28;20374;-69
2024/03/24 11:19:29;;;;;;;2.78;1.30;;;9.40;99.90;;;;;;5031602;28;20096;-70
2024/03/24 11:21:57;;;;;;;3.42;1.27;;;9.20;99.90;;;;;;5025872;28;20437;-69
2024/03/24 11:24:27;;;;;;;3.83;1.33;;;9.20;99.90;;;;;;5031640;28;20033;-69
2024/03/24 11:26:54;;;;;;;3.83;1.40;;;9.10;99.90;;;;;;5031683;28;20437;-73
2024/03/24 11:29:45;;;;;;;3.20;1.30;;;9.10;99.90;;;;;;5030247;28;20065;-69
2024/03/24 11:32:16;;;;;;;3.72;1.40;;;9.00;99.90;;;;;;5031616;28;20030;-68
2024/03/24 11:35:03;;;;;;;3.20;1.55;;;9.00;99.90;;;;;;5032483;28;20040;-69
2024/03/24 11:37:31;;;;;;;3.95;1.23;;;8.90;99.90;;;;;;5032455;28;20028;-70
2024/03/24 11:39:58;;;;;;;4.50;1.48;;;8.70;99.90;;;;;;5032346;28;20044;-69
2024/03/24 11:42:28;;;;;;;4.32;1.35;;;8.70;99.90;;;;;;5030723;28;20434;-69
2024/03/24 11:44:54;;;;;;;3.45;1.40;;;8.60;99.90;;;;;;5032298;28;20161;-68
2024/03/24 11:47:23;;;;;;;2.75;1.25;;;8.60;99.90;;;;;;5030965;28;20128;-68
2024/03/24 11:49:50;;;;;;;1.90;1.40;;;8.80;99.90;;;;;;5032480;28;20037;-70
2024/03/24 11:52:16;;;;;;;2.13;1.30;;;8.90;99.90;;;;;;5030569;28;20032;-74
2024/03/24 11:54:46;;;;;;;3.03;1.30;;;8.90;99.90;;;;;;5017115;28;20030;-70
2024/03/24 11:57:11;;;;;;;2.63;1.00;;;8.90;99.90;;;;;;5030352;28;20031;-70
2024/03/24 11:59:38;;;;;;;3.17;1.50;;;8.90;99.90;;;;;;5030415;28;20029;-70
2024/03/24 12:02:04;;;;;;;3.97;1.75;;;9.20;99.90;;;;;;5024169;28;20061;-69
2024/03/24 12:04:30;;;;;;;4.07;1.38;;;9.40;99.90;;;;;;5030278;28;20415;-69
2024/03/24 12:06:56;;;;;;;2.75;1.25;;;9.50;99.90;;;;;;5029598;28;20061;-69
2024/03/24 12:09:25;;;;;;;3.10;1.20;;;9.40;99.90;;;;;;5029433;28;20216;-72
2024/03/24 12:11:54;;;;;;;4.35;1.23;;;9.40;99.90;;;;;;5029014;28;20382;-73
2024/03/24 12:14:23;;;;;;;3.45;1.70;;;9.40;99.90;;;;;;5031788;28;20080;-71
2024/03/24 12:17:02;;;;;;;4.60;1.80;;;9.30;99.90;;;;;;5024342;28;20025;-69
2024/03/24 12:19:28;;;;;;;5.50;1.20;;;9.20;99.90;;;;;;5028014;28;20104;-71
2024/03/24 12:21:53;;;;;;;4.65;1.63;;;9.00;99.90;;;;;;5032095;28;20033;-69
2024/03/24 12:24:19;;;;;;;4.75;1.30;;;8.80;99.90;;;;;;5024765;28;20038;-69
2024/03/24 12:26:45;;;;;;;5.85;1.48;;;8.60;99.90;;;;;;5023017;28;20029;-69
2024/03/24 12:29:17;;;;;;;4.35;1.00;;;8.50;99.90;;;;;;5030699;28;20022;-68
2024/03/24 12:31:47;;;;;;;3.75;1.50;;;8.20;99.90;;;;;;5030971;28;20026;-69
2024/03/24 12:34:13;;;;;;;;;;;8.20;99.90;;;;;;5030763;28;20044;-69
2024/03/24 12:36:39;;;;;;;3.58;1.33;;;8.00;99.90;;;;;;5030356;28;19939;-69
2024/03/24 12:39:04;;;;;;;5.78;2.08;;;7.90;99.90;;;;;;5029086;28;20131;-69
2024/03/24 12:41:30;;;;;;;2.70;1.30;;;7.80;99.90;;;;;;5031223;28;20030;-70
2024/03/24 12:43:58;;;;;;;3.58;1.17;;;7.80;99.90;;;;;;5030996;28;20030;-70
2024/03/24 12:46:29;;;;;;;4.50;1.40;;;7.70;99.90;;;;;;5029621;28;20029;-69
2024/03/24 12:48:55;;;;;;;4.78;1.45;;;7.70;99.90;;;;;;5031563;28;20028;-70
2024/03/24 12:51:21;;;;;;;3.63;1.35;;;7.80;99.90;;;;;;5029809;28;20021;-70
2024/03/24 12:54:00;;;;;;;3.83;1.33;;;7.90;99.90;;;;;;5025863;28;20026;-70
2024/03/24 12:56:25;;;;;;;4.22;1.17;;;8.00;99.90;;;;;;5029556;28;20435;-69
2024/03/24 12:58:51;;;;;;;3.55;1.33;;;8.20;99.90;;;;;;5032603;28;20033;-71
2024/03/24 13:01:18;;;;;;;2.85;1.20;;;8.20;99.90;;;;;;5032494;28;20078;-71
2024/03/24 13:03:45;;;;;;;3.72;1.40;;;8.00;99.90;;;;;;5029917;28;20029;-70
2024/03/24 13:06:16;;;;;;;4.63;1.30;;;7.70;99.90;;;;;;5030253;28;20430;-69
2024/03/24 13:08:44;;;;;;;5.72;1.50;;;6.90;99.90;;;;;;5030695;28;20030;-69